Terminal Aerodrome Forecast
Issued by NWS Sioux Falls, SD

Home | Current Version | Previous Version | Graphics & Text | Print | Product List | Glossary On
Versions: 1 2 3 4 5 6 7 8 9 10 11 12 13 14 15 16 17 18 19 20 21
217
FTUS43 KFSD 302327
TAFHON
TAF
KHON 302327Z 0100/0124 31013G19KT P6SM VCSH OVC010
     FM010200 31011KT P6SM OVC015
     FM011300 31008KT P6SM OVC015
     FM011800 31007KT P6SM OVC008=

USA.gov is the U.S. government's official web portal to all federal, state and local government web resources and services.